Time;durP1;ratioP1;P1;durP2;ratioP2;P2;SDS_P1;SDS_P2;PMS_P1;PMS_P2;Temp;Humidity;BMP_temperature;BMP_pressure;BME280_temperature;BME280_humidity;BME280_pressure;Samples;Min_cycle;Max_cycle;Signal;HPM_P1;HPM_P2
2022/12/20 00:00:14;;;;;;;58.25;34.60;;;;;;;;;;5050359;28;20401;-83
2022/12/20 00:02:40;;;;;;;57.65;33.92;;;;;;;;;;5052343;28;20371;-82
2022/12/20 00:05:06;;;;;;;55.67;34.53;;;;;;;;;;5052876;28;20716;-82
2022/12/20 00:07:32;;;;;;;57.10;33.78;;;;;;;;;;5052727;28;20510;-83
2022/12/20 00:09:58;;;;;;;57.38;34.20;;;;;;;;;;5052624;28;20377;-83
2022/12/20 00:12:24;;;;;;;56.65;34.92;;;;;;;;;;5052802;28;20404;-82
2022/12/20 00:14:50;;;;;;;56.83;34.72;;;;;;;;;;5052546;28;20409;-83
2022/12/20 00:17:16;;;;;;;52.35;33.20;;;;;;;;;;5052606;28;20439;-82
2022/12/20 00:19:45;;;;;;;53.75;33.97;;;;;;;;;;5052393;28;20924;-82
2022/12/20 00:22:11;;;;;;;52.67;33.95;;;;;;;;;;5052438;28;20405;-83
2022/12/20 00:24:37;;;;;;;54.75;34.50;;;;;;;;;;5052437;28;20385;-82
2022/12/20 00:27:03;;;;;;;53.83;33.28;;;;;;;;;;5049435;28;20791;-83
2022/12/20 00:29:29;;;;;;;50.35;31.77;;;;;;;;;;5052263;28;20477;-82
2022/12/20 00:31:55;;;;;;;55.97;32.83;;;;;;;;;;5050502;28;20468;-83
2022/12/20 00:34:21;;;;;;;52.83;33.63;;;;;;;;;;5052260;28;20959;-83
2022/12/20 00:36:47;;;;;;;55.08;33.83;;;;;;;;;;5052190;28;20468;-83
2022/12/20 00:39:13;;;;;;;54.00;32.50;;;;;;;;;;5052097;28;20918;-83
2022/12/20 00:41:39;;;;;;;53.80;32.30;;;;;;;;;;5051994;28;20466;-83
2022/12/20 00:44:05;;;;;;;55.20;33.78;;;;;;;;;;5052080;28;20377;-82
2022/12/20 00:46:31;;;;;;;52.33;32.57;;;;;;;;;;5052017;28;20916;-82
2022/12/20 00:48:57;;;;;;;51.67;33.30;;;;;;;;;;5046755;28;20405;-82
2022/12/20 00:51:24;;;;;;;55.05;33.90;;;;;;;;;;5052019;28;20743;-82
2022/12/20 00:53:50;;;;;;;52.13;32.75;;;;;;;;;;5051854;28;20401;-82
2022/12/20 00:56:16;;;;;;;55.63;33.67;;;;;;;;;;5034037;28;20739;-82
2022/12/20 00:58:43;;;;;;;58.03;35.07;;;;;;;;;;5051689;28;20549;-82
2022/12/20 01:01:17;;;;;;;58.13;33.78;;;;;;;;;;5051615;28;20898;-82
2022/12/20 01:03:43;;;;;;;53.40;32.72;;;;;;;;;;5051735;28;20463;-82
2022/12/20 01:06:10;;;;;;;55.65;32.78;;;;;;;;;;5051667;28;20416;-82
2022/12/20 01:08:36;;;;;;;53.13;31.95;;;;;;;;;;5051630;28;20377;-83
2022/12/20 01:11:08;;;;;;;47.88;30.48;;;;;;;;;;5051382;28;20382;-82
2022/12/20 01:13:35;;;;;;;47.95;31.10;;;;;;;;;;5051680;28;20419;-82
2022/12/20 01:16:08;;;;;;;46.88;30.15;;;;;;;;;;5051567;28;20445;-82
2022/12/20 01:18:34;;;;;;;48.65;30.70;;;;;;;;;;5051635;28;25091;-82
2022/12/20 01:21:04;;;;;;;48.47;30.63;;;;;;;;;;5051551;28;20377;-82
2022/12/20 01:23:30;;;;;;;54.13;32.15;;;;;;;;;;5051490;28;20749;-82
2022/12/20 01:25:59;;;;;;;51.30;31.52;;;;;;;;;;5045565;28;20882;-83
2022/12/20 01:28:25;;;;;;;50.53;31.15;;;;;;;;;;5034229;28;20406;-83
2022/12/20 01:30:51;;;;;;;47.20;30.40;;;;;;;;;;5033573;28;20387;-84
2022/12/20 01:33:17;;;;;;;47.75;30.48;;;;;;;;;;5038667;28;20488;-83
2022/12/20 01:35:54;;;;;;;48.17;30.42;;;;;;;;;;5046441;28;20378;-84
2022/12/20 01:38:20;;;;;;;51.08;31.13;;;;;;;;;;5037267;28;25108;-84
2022/12/20 01:40:45;;;;;;;52.78;32.88;;;;;;;;;;5051397;28;20407;-85
2022/12/20 01:43:13;;;;;;;52.58;32.58;;;;;;;;;;5036279;28;20391;-85
2022/12/20 01:45:39;;;;;;;48.70;31.15;;;;;;;;;;5036023;28;20376;-84
2022/12/20 01:48:05;;;;;;;49.72;31.55;;;;;;;;;;5031399;28;20380;-83
2022/12/20 01:50:31;;;;;;;57.55;34.38;;;;;;;;;;5032640;28;20939;-84
2022/12/20 01:52:58;;;;;;;55.75;34.40;;;;;;;;;;5032101;28;20383;-84
2022/12/20 01:55:27;;;;;;;56.78;34.38;;;;;;;;;;5044908;28;20953;-84
2022/12/20 01:57:56;;;;;;;52.30;32.85;;;;;;;;;;5047710;28;20538;-83
2022/12/20 02:00:22;;;;;;;51.85;32.80;;;;;;;;;;5049609;28;20407;-83
2022/12/20 02:02:49;;;;;;;49.47;30.42;;;;;;;;;;5050009;28;20956;-82
2022/12/20 02:05:17;;;;;;;45.53;29.35;;;;;;;;;;5048398;28;20386;-83
2022/12/20 02:07:45;;;;;;;52.33;31.45;;;;;;;;;;5049998;28;20485;-83
2022/12/20 02:10:12;;;;;;;53.78;33.03;;;;;;;;;;5047900;28;20814;-83
2022/12/20 02:12:40;;;;;;;50.60;31.77;;;;;;;;;;5036234;28;20476;-85
2022/12/20 02:15:06;;;;;;;56.60;34.15;;;;;;;;;;5050012;28;20430;-84
2022/12/20 02:17:32;;;;;;;51.35;31.58;;;;;;;;;;5049797;28;20897;-83
2022/12/20 02:20:10;;;;;;;50.40;31.30;;;;;;;;;;5049884;28;20448;-84
2022/12/20 02:22:55;;;;;;;51.55;31.38;;;;;;;;;;5049260;28;25113;-84
2022/12/20 02:25:42;;;;;;;48.55;30.48;;;;;;;;;;5052734;28;20374;-83
2022/12/20 02:28:17;;;;;;;51.03;32.30;;;;;;;;;;5054323;28;25165;-84
2022/12/20 02:30:44;;;;;;;49.58;31.20;;;;;;;;;;5054594;28;20511;-83
2022/12/20 02:33:11;;;;;;;46.63;30.65;;;;;;;;;;5046788;28;20386;-84
2022/12/20 02:35:37;;;;;;;47.38;30.48;;;;;;;;;;5054659;28;20382;-83
2022/12/20 02:38:23;;;;;;;46.40;29.70;;;;;;;;;;5047680;28;20392;-84
2022/12/20 02:40:51;;;;;;;46.50;29.65;;;;;;;;;;5051118;28;25100;-84
2022/12/20 02:46:02;;;;;;;46.70;30.05;;;;;;;;;;5050239;28;20368;-83
2022/12/20 02:48:31;;;;;;;51.17;30.50;;;;;;;;;;5050945;28;20456;-84
2022/12/20 02:50:58;;;;;;;54.03;32.65;;;;;;;;;;5036943;28;20384;-85
2022/12/20 02:53:24;;;;;;;56.40;34.53;;;;;;;;;;5034442;28;22346;-83
2022/12/20 02:55:54;;;;;;;45.72;29.63;;;;;;;;;;5051784;28;20870;-84
2022/12/20 02:58:23;;;;;;;50.95;31.02;;;;;;;;;;5052202;28;20440;-84
2022/12/20 03:00:50;;;;;;;47.53;30.80;;;;;;;;;;5052466;28;20864;-84
2022/12/20 03:03:22;;;;;;;43.95;28.27;;;;;;;;;;5052196;28;20387;-84
2022/12/20 03:05:49;;;;;;;44.07;28.07;;;;;;;;;;5052016;28;20405;-83
2022/12/20 03:08:16;;;;;;;45.58;29.73;;;;;;;;;;5052356;28;20371;-84
2022/12/20 03:10:42;;;;;;;50.42;31.35;;;;;;;;;;5051956;28;20970;-83
2022/12/20 03:13:08;;;;;;;46.03;29.17;;;;;;;;;;5051911;28;20401;-84
2022/12/20 03:15:34;;;;;;;48.83;30.80;;;;;;;;;;5052262;28;20388;-85
2022/12/20 03:18:00;;;;;;;50.30;31.00;;;;;;;;;;5051873;28;20431;-84
2022/12/20 03:20:27;;;;;;;45.47;30.25;;;;;;;;;;5052070;28;20381;-84
2022/12/20 03:22:53;;;;;;;47.33;30.00;;;;;;;;;;5047748;28;20408;-85
2022/12/20 03:25:19;;;;;;;45.17;29.13;;;;;;;;;;5042407;28;20734;-84
2022/12/20 03:27:45;;;;;;;48.07;30.00;;;;;;;;;;5034089;28;20466;-84
2022/12/20 03:30:11;;;;;;;51.67;31.40;;;;;;;;;;5035319;28;20402;-83
2022/12/20 03:32:37;;;;;;;43.83;29.20;;;;;;;;;;5033469;28;20768;-84
2022/12/20 03:35:03;;;;;;;43.75;28.52;;;;;;;;;;5032891;28;20411;-83
2022/12/20 03:37:29;;;;;;;41.55;27.83;;;;;;;;;;5037582;28;20725;-83
2022/12/20 03:39:55;;;;;;;44.08;28.60;;;;;;;;;;5033993;28;20378;-85
2022/12/20 03:42:21;;;;;;;45.75;28.15;;;;;;;;;;5034203;28;20382;-82
2022/12/20 03:44:47;;;;;;;44.53;29.25;;;;;;;;;;5034332;28;20383;-84
2022/12/20 03:47:13;;;;;;;47.30;29.70;;;;;;;;;;5032214;28;20421;-83
2022/12/20 03:49:39;;;;;;;43.40;27.63;;;;;;;;;;5034200;28;20383;-84
2022/12/20 03:52:05;;;;;;;37.28;24.65;;;;;;;;;;5034371;28;20888;-85
2022/12/20 03:54:31;;;;;;;36.15;24.42;;;;;;;;;;5034883;28;20811;-85
2022/12/20 03:56:57;;;;;;;35.15;23.80;;;;;;;;;;5032889;28;20413;-84
2022/12/20 03:59:23;;;;;;;37.50;24.70;;;;;;;;;;5033503;28;20435;-83
2022/12/20 04:01:49;;;;;;;36.03;23.75;;;;;;;;;;5032261;28;20393;-84
2022/12/20 04:04:15;;;;;;;30.67;22.45;;;;;;;;;;5032016;28;20379;-84
2022/12/20 04:06:42;;;;;;;34.93;23.93;;;;;;;;;;5037008;28;20386;-84
2022/12/20 04:09:08;;;;;;;35.15;23.98;;;;;;;;;;5034384;28;20382;-85
2022/12/20 04:11:33;;;;;;;34.10;22.92;;;;;;;;;;5034230;28;20546;-83
2022/12/20 04:13:59;;;;;;;33.78;23.25;;;;;;;;;;5035460;28;21018;-85
2022/12/20 04:16:27;;;;;;;36.07;23.87;;;;;;;;;;5033373;28;20378;-83
2022/12/20 04:18:54;;;;;;;33.72;23.33;;;;;;;;;;5016838;28;20469;-84
2022/12/20 04:21:37;;;;;;;34.67;23.57;;;;;;;;;;5031717;28;20740;-84
2022/12/20 04:24:04;;;;;;;36.13;24.40;;;;;;;;;;5033699;28;20427;-83
2022/12/20 04:26:30;;;;;;;36.53;24.90;;;;;;;;;;5035414;28;20382;-83
2022/12/20 04:28:56;;;;;;;38.75;24.67;;;;;;;;;;5032798;28;20383;-83
2022/12/20 04:31:22;;;;;;;36.88;25.85;;;;;;;;;;5034950;28;20873;-84
2022/12/20 04:33:49;;;;;;;37.40;25.13;;;;;;;;;;5036427;28;20449;-84
2022/12/20 04:36:15;;;;;;;39.70;26.00;;;;;;;;;;5031701;28;20387;-83
2022/12/20 04:38:41;;;;;;;43.17;27.65;;;;;;;;;;5031067;28;20852;-83
2022/12/20 04:41:07;;;;;;;46.50;27.83;;;;;;;;;;5033452;28;20379;-83
2022/12/20 04:43:33;;;;;;;38.17;25.25;;;;;;;;;;5035340;28;20385;-84
2022/12/20 04:45:59;;;;;;;35.72;24.85;;;;;;;;;;5031132;28;20947;-83
2022/12/20 04:48:26;;;;;;;40.15;25.88;;;;;;;;;;5015898;28;20391;-83
2022/12/20 04:50:52;;;;;;;34.92;23.75;;;;;;;;;;5038432;28;20377;-84
2022/12/20 04:56:04;;;;;;;36.85;24.35;;;;;;;;;;5034283;28;20378;-84
2022/12/20 04:58:30;;;;;;;38.95;24.83;;;;;;;;;;5031938;28;20383;-85
2022/12/20 05:00:56;;;;;;;36.60;24.40;;;;;;;;;;5032130;28;20405;-84
2022/12/20 05:03:23;;;;;;;32.13;22.95;;;;;;;;;;5030909;28;20401;-84
2022/12/20 05:05:49;;;;;;;34.65;24.13;;;;;;;;;;5030541;28;20472;-84
2022/12/20 05:08:15;;;;;;;35.13;23.85;;;;;;;;;;5032837;28;20402;-85
2022/12/20 05:10:41;;;;;;;46.97;28.13;;;;;;;;;;5032534;28;20433;-85
2022/12/20 05:13:07;;;;;;;35.80;24.83;;;;;;;;;;5045178;28;20395;-85
2022/12/20 05:15:33;;;;;;;36.57;24.63;;;;;;;;;;5026035;28;20409;-84
2022/12/20 05:17:59;;;;;;;35.03;24.13;;;;;;;;;;5050119;28;20406;-85
2022/12/20 05:20:29;;;;;;;35.78;24.92;;;;;;;;;;5051542;28;20416;-85
2022/12/20 05:28:29;;;;;;;34.03;23.77;;;;;;;;;;5051953;28;20530;-85
2022/12/20 05:30:55;;;;;;;34.08;22.50;;;;;;;;;;5044793;28;20812;-82
2022/12/20 05:33:21;;;;;;;36.25;24.02;;;;;;;;;;5049758;28;20385;-82
2022/12/20 05:35:47;;;;;;;34.78;23.90;;;;;;;;;;5051567;28;20382;-82
2022/12/20 05:38:13;;;;;;;34.45;23.10;;;;;;;;;;5051501;28;20385;-82
2022/12/20 05:40:39;;;;;;;34.87;22.67;;;;;;;;;;5051363;28;20384;-82
2022/12/20 05:43:06;;;;;;;33.42;22.92;;;;;;;;;;5051396;28;20455;-81
2022/12/20 05:45:32;;;;;;;35.38;23.35;;;;;;;;;;5030469;28;20944;-82
2022/12/20 05:47:58;;;;;;;36.78;24.77;;;;;;;;;;5051401;28;20392;-81
2022/12/20 05:50:25;;;;;;;34.28;23.20;;;;;;;;;;5051247;28;20373;-81
2022/12/20 05:52:51;;;;;;;35.20;22.55;;;;;;;;;;5051398;28;20382;-81
2022/12/20 05:55:16;;;;;;;34.92;23.38;;;;;;;;;;5033874;28;20422;-82
2022/12/20 05:57:42;;;;;;;30.23;21.58;;;;;;;;;;5037212;28;20378;-82
2022/12/20 06:00:09;;;;;;;36.00;23.30;;;;;;;;;;5035072;28;20839;-83
2022/12/20 06:02:35;;;;;;;28.90;20.92;;;;;;;;;;5039948;28;20389;-84
2022/12/20 06:05:01;;;;;;;32.47;21.35;;;;;;;;;;5053032;28;20724;-84
2022/12/20 06:07:30;;;;;;;35.03;23.23;;;;;;;;;;5047501;28;20536;-82
2022/12/20 06:09:57;;;;;;;34.83;23.17;;;;;;;;;;5052474;28;20397;-82
2022/12/20 06:12:23;;;;;;;32.88;22.98;;;;;;;;;;5024052;28;20401;-82
2022/12/20 06:14:49;;;;;;;31.00;21.17;;;;;;;;;;5033754;28;20413;-83
2022/12/20 06:17:15;;;;;;;36.15;23.50;;;;;;;;;;5036067;28;20376;-83
2022/12/20 06:19:41;;;;;;;33.57;23.13;;;;;;;;;;5052863;28;20378;-83
2022/12/20 06:22:10;;;;;;;34.28;23.17;;;;;;;;;;5038394;28;20388;-84
2022/12/20 06:24:37;;;;;;;31.48;22.02;;;;;;;;;;5050405;28;20952;-85
2022/12/20 06:27:03;;;;;;;32.28;22.58;;;;;;;;;;5053974;28;20389;-84
2022/12/20 06:29:29;;;;;;;32.10;21.83;;;;;;;;;;5036486;28;20754;-84
2022/12/20 06:31:56;;;;;;;29.88;21.52;;;;;;;;;;5048866;28;20931;-85
2022/12/20 06:34:22;;;;;;;30.48;21.23;;;;;;;;;;5034088;28;20496;-84
2022/12/20 06:36:48;;;;;;;29.10;20.63;;;;;;;;;;5052801;28;20930;-84
2022/12/20 06:39:14;;;;;;;28.55;20.52;;;;;;;;;;5027240;28;20388;-84
2022/12/20 06:41:40;;;;;;;28.80;21.20;;;;;;;;;;5033532;28;20727;-85
2022/12/20 06:44:07;;;;;;;35.13;23.35;;;;;;;;;;5054525;28;20936;-84
2022/12/20 06:46:33;;;;;;;29.70;21.27;;;;;;;;;;5054256;28;20442;-85
2022/12/20 06:48:59;;;;;;;26.98;20.77;;;;;;;;;;5054271;28;20416;-84
2022/12/20 06:51:25;;;;;;;32.53;22.73;;;;;;;;;;5054439;28;20413;-84
2022/12/20 06:53:51;;;;;;;29.50;21.17;;;;;;;;;;5053379;28;20921;-85
2022/12/20 06:56:17;;;;;;;29.50;20.53;;;;;;;;;;5049594;28;20398;-84
2022/12/20 06:58:45;;;;;;;30.70;21.10;;;;;;;;;;5054099;28;20385;-84
2022/12/20 07:01:11;;;;;;;28.30;19.88;;;;;;;;;;5054061;28;20487;-84
2022/12/20 07:03:37;;;;;;;29.95;21.23;;;;;;;;;;5036158;28;20425;-84
2022/12/20 07:06:03;;;;;;;28.55;20.45;;;;;;;;;;5054182;28;20397;-84
2022/12/20 07:08:29;;;;;;;33.72;22.33;;;;;;;;;;5053466;28;20472;-84
2022/12/20 07:10:55;;;;;;;36.80;24.13;;;;;;;;;;5049319;28;20397;-84
2022/12/20 07:13:22;;;;;;;34.00;23.23;;;;;;;;;;5053996;28;20441;-84
2022/12/20 07:15:48;;;;;;;33.83;22.08;;;;;;;;;;5054030;28;20469;-84
2022/12/20 07:18:14;;;;;;;31.85;22.73;;;;;;;;;;5053907;28;20377;-84
2022/12/20 07:20:40;;;;;;;31.80;22.15;;;;;;;;;;5053801;28;20740;-84
2022/12/20 07:23:06;;;;;;;31.05;21.48;;;;;;;;;;5053742;28;20385;-83
2022/12/20 07:25:32;;;;;;;33.55;22.42;;;;;;;;;;5053732;28;20384;-84
2022/12/20 07:27:58;;;;;;;32.58;21.88;;;;;;;;;;5053721;28;20382;-83
2022/12/20 07:30:24;;;;;;;32.30;21.92;;;;;;;;;;5053459;28;20863;-84
2022/12/20 07:32:50;;;;;;;29.35;20.60;;;;;;;;;;5053756;28;20389;-84
2022/12/20 07:35:16;;;;;;;32.40;21.63;;;;;;;;;;5051658;28;20397;-83
2022/12/20 07:37:43;;;;;;;31.90;21.50;;;;;;;;;;5053609;28;20381;-84
2022/12/20 07:40:10;;;;;;;28.98;20.60;;;;;;;;;;5053106;28;20879;-84
2022/12/20 07:42:36;;;;;;;29.00;20.65;;;;;;;;;;5053490;28;20393;-83
2022/12/20 07:45:02;;;;;;;28.05;19.55;;;;;;;;;;5053468;28;20428;-84
2022/12/20 07:47:28;;;;;;;29.90;21.27;;;;;;;;;;5053204;28;20385;-84
2022/12/20 07:49:54;;;;;;;24.77;18.90;;;;;;;;;;5053333;28;20392;-83
2022/12/20 07:52:22;;;;;;;25.92;19.05;;;;;;;;;;5053265;28;20381;-85
2022/12/20 07:54:53;;;;;;;26.63;19.53;;;;;;;;;;5053294;28;20409;-84
2022/12/20 07:57:25;;;;;;;25.45;18.90;;;;;;;;;;5052875;28;20439;-84
2022/12/20 07:59:53;;;;;;;27.13;19.52;;;;;;;;;;5052882;28;20882;-84
2022/12/20 08:02:22;;;;;;;27.45;19.05;;;;;;;;;;5053020;28;20390;-83
2022/12/20 08:04:49;;;;;;;25.23;18.02;;;;;;;;;;5053103;28;20742;-83
2022/12/20 08:07:16;;;;;;;26.33;19.30;;;;;;;;;;5051491;28;20396;-83
2022/12/20 08:09:44;;;;;;;30.08;19.95;;;;;;;;;;5051889;28;20444;-83
2022/12/20 08:12:12;;;;;;;26.02;19.00;;;;;;;;;;5033342;28;21075;-83
2022/12/20 08:14:38;;;;;;;29.20;20.38;;;;;;;;;;5046567;28;20414;-83
2022/12/20 08:17:04;;;;;;;28.52;20.10;;;;;;;;;;5052816;28;20454;-83
2022/12/20 08:19:30;;;;;;;32.03;21.63;;;;;;;;;;5050204;28;20858;-83
2022/12/20 08:21:56;;;;;;;32.60;21.48;;;;;;;;;;5052225;28;20380;-83
2022/12/20 08:24:22;;;;;;;33.45;23.35;;;;;;;;;;5052665;28;20385;-83
2022/12/20 08:26:48;;;;;;;29.40;20.15;;;;;;;;;;5052620;28;20882;-83
2022/12/20 08:29:14;;;;;;;28.92;20.65;;;;;;;;;;5052466;28;20373;-83
2022/12/20 08:31:41;;;;;;;31.42;21.35;;;;;;;;;;5034414;28;20414;-83
2022/12/20 08:34:07;;;;;;;33.13;20.80;;;;;;;;;;5052439;28;20408;-83
2022/12/20 08:36:33;;;;;;;29.60;21.42;;;;;;;;;;5052356;28;20379;-83
2022/12/20 08:39:06;;;;;;;34.67;22.98;;;;;;;;;;5052329;28;20471;-84
2022/12/20 08:41:33;;;;;;;30.65;22.10;;;;;;;;;;5051735;28;20385;-83
2022/12/20 08:43:59;;;;;;;31.75;22.15;;;;;;;;;;5041925;28;20385;-83
2022/12/20 08:46:25;;;;;;;30.83;21.70;;;;;;;;;;5052290;28;20926;-83
2022/12/20 08:48:51;;;;;;;35.38;23.58;;;;;;;;;;5052038;28;20472;-83
2022/12/20 08:51:17;;;;;;;36.83;23.20;;;;;;;;;;5052136;28;20391;-83
2022/12/20 08:53:43;;;;;;;33.53;22.77;;;;;;;;;;5052049;28;20759;-83
2022/12/20 08:56:16;;;;;;;34.35;23.25;;;;;;;;;;5034233;28;20378;-83
2022/12/20 08:58:43;;;;;;;36.10;23.83;;;;;;;;;;5051003;28;20402;-83
2022/12/20 09:01:11;;;;;;;35.15;25.02;;;;;;;;;;5051286;28;21004;-83
2022/12/20 09:03:37;;;;;;;35.50;24.13;;;;;;;;;;5051891;28;20939;-83
2022/12/20 09:06:07;;;;;;;34.08;24.08;;;;;;;;;;5051882;28;20412;-83
2022/12/20 09:08:34;;;;;;;32.08;22.15;;;;;;;;;;5051944;28;20375;-83
2022/12/20 09:11:04;;;;;;;36.40;23.05;;;;;;;;;;5051803;28;20460;-83
2022/12/20 09:13:30;;;;;;;30.80;21.35;;;;;;;;;;5051751;28;20779;-83
2022/12/20 09:15:59;;;;;;;49.50;28.77;;;;;;;;;;5051775;28;20388;-83
2022/12/20 09:18:25;;;;;;;40.67;27.38;;;;;;;;;;5051739;28;20489;-83
2022/12/20 09:20:51;;;;;;;43.93;28.90;;;;;;;;;;5051607;28;20470;-83
2022/12/20 09:23:17;;;;;;;51.72;31.27;;;;;;;;;;5051523;28;20382;-83
2022/12/20 09:25:43;;;;;;;53.63;32.38;;;;;;;;;;5051666;28;20394;-83
2022/12/20 09:28:09;;;;;;;59.47;34.40;;;;;;;;;;5051474;28;20417;-84
2022/12/20 09:30:35;;;;;;;54.15;32.55;;;;;;;;;;5051472;28;20381;-83
2022/12/20 09:33:01;;;;;;;50.40;31.08;;;;;;;;;;5051074;28;20388;-84
2022/12/20 09:35:27;;;;;;;50.20;30.65;;;;;;;;;;5044196;28;20420;-83
2022/12/20 09:37:53;;;;;;;47.95;29.10;;;;;;;;;;5051499;28;20381;-83
2022/12/20 09:40:20;;;;;;;36.78;25.42;;;;;;;;;;5051329;28;20386;-84
2022/12/20 09:42:47;;;;;;;39.50;25.55;;;;;;;;;;5051413;28;20961;-83
2022/12/20 09:45:19;;;;;;;33.63;23.25;;;;;;;;;;5051468;28;20380;-83
2022/12/20 09:47:45;;;;;;;34.13;23.23;;;;;;;;;;5051454;28;20439;-83
2022/12/20 09:50:14;;;;;;;35.85;23.63;;;;;;;;;;5051331;28;20385;-83
2022/12/20 09:52:46;;;;;;;32.88;23.08;;;;;;;;;;5051335;28;20904;-84
2022/12/20 09:55:26;;;;;;;32.97;22.60;;;;;;;;;;5051317;28;20484;-83
2022/12/20 09:57:55;;;;;;;37.93;23.73;;;;;;;;;;5033553;28;20471;-83
2022/12/20 10:00:21;;;;;;;36.88;25.33;;;;;;;;;;5051033;28;20413;-83
2022/12/20 10:02:47;;;;;;;37.20;25.33;;;;;;;;;;5051247;28;20425;-83
2022/12/20 10:05:21;;;;;;;37.57;26.43;;;;;;;;;;5051187;28;20420;-84
2022/12/20 10:08:14;;;;;;;42.25;28.20;;;;;;;;;;5051021;28;25050;-83
2022/12/20 10:10:51;;;;;;;42.33;28.70;;;;;;;;;;5047056;28;20459;-83
2022/12/20 10:13:29;;;;;;;45.53;30.30;;;;;;;;;;5045046;28;25112;-84
2022/12/20 10:16:14;;;;;;;45.65;30.55;;;;;;;;;;5027840;28;25115;-83
2022/12/20 10:18:45;;;;;;;45.40;29.83;;;;;;;;;;5050819;28;25179;-84
2022/12/20 10:21:14;;;;;;;44.25;30.30;;;;;;;;;;5050520;28;20904;-83
2022/12/20 10:23:43;;;;;;;41.25;27.25;;;;;;;;;;5041651;28;20367;-83
2022/12/20 10:26:11;;;;;;;38.87;27.10;;;;;;;;;;5051043;28;20736;-83
2022/12/20 10:28:38;;;;;;;42.55;28.27;;;;;;;;;;5050890;28;20369;-84
2022/12/20 10:31:22;;;;;;;40.10;27.27;;;;;;;;;;5050896;28;20469;-84
2022/12/20 10:33:48;;;;;;;43.40;29.05;;;;;;;;;;5038778;28;20500;-84
2022/12/20 10:36:25;;;;;;;47.28;29.70;;;;;;;;;;5050951;28;20461;-83
2022/12/20 10:38:55;;;;;;;41.60;27.00;;;;;;;;;;5050766;28;20458;-84
2022/12/20 10:41:26;;;;;;;40.92;28.35;;;;;;;;;;5050993;28;20386;-84
2022/12/20 10:43:58;;;;;;;45.83;30.08;;;;;;;;;;5052175;28;20377;-84
2022/12/20 10:46:34;;;;;;;48.05;31.15;;;;;;;;;;5051635;28;20401;-84
2022/12/20 10:49:20;;;;;;;43.30;29.60;;;;;;;;;;5054272;28;20382;-84
2022/12/20 10:51:52;;;;;;;47.13;30.70;;;;;;;;;;5054324;28;25095;-84
2022/12/20 10:54:23;;;;;;;47.60;31.98;;;;;;;;;;5036153;28;25159;-84
2022/12/20 10:57:00;;;;;;;44.78;30.38;;;;;;;;;;5054323;28;20435;-84
2022/12/20 10:59:34;;;;;;;48.70;32.40;;;;;;;;;;5053518;28;32171;-84
2022/12/20 11:02:00;;;;;;;44.90;30.27;;;;;;;;;;5054018;28;25111;-84
2022/12/20 11:04:28;;;;;;;41.50;29.10;;;;;;;;;;5054283;28;20375;-87
2022/12/20 11:06:54;;;;;;;42.38;29.77;;;;;;;;;;5051906;28;20393;-86
2022/12/20 11:09:29;;;;;;;48.33;31.50;;;;;;;;;;5052254;28;20451;-84
2022/12/20 11:12:03;;;;;;;53.08;33.15;;;;;;;;;;5035045;28;25103;-85
2022/12/20 11:14:29;;;;;;;47.20;31.42;;;;;;;;;;5049390;28;25140;-85
2022/12/20 11:16:59;;;;;;;55.33;33.53;;;;;;;;;;5045879;28;20373;-86
2022/12/20 11:19:43;;;;;;;49.53;33.17;;;;;;;;;;5049601;28;20800;-86
2022/12/20 11:22:15;;;;;;;46.55;31.88;;;;;;;;;;5049084;28;20373;-85
2022/12/20 11:24:41;;;;;;;45.58;30.52;;;;;;;;;;5036123;28;20405;-85
2022/12/20 11:27:07;;;;;;;51.95;34.55;;;;;;;;;;5053710;28;20488;-85
2022/12/20 11:29:45;;;;;;;52.27;32.77;;;;;;;;;;5051542;28;20385;-86
2022/12/20 11:32:15;;;;;;;52.58;34.83;;;;;;;;;;5050892;28;20382;-87
2022/12/20 11:34:53;;;;;;;51.85;33.22;;;;;;;;;;5051156;28;20410;-85
2022/12/20 11:37:26;;;;;;;48.95;32.65;;;;;;;;;;5052319;28;25102;-87
2022/12/20 11:40:04;;;;;;;52.47;32.97;;;;;;;;;;5052491;28;25106;-85
2022/12/20 11:43:09;;;;;;;55.15;35.78;;;;;;;;;;5051333;28;20381;-86
2022/12/20 11:45:53;;;;;;;53.15;34.60;;;;;;;;;;4961558;28;20390;-85
2022/12/20 11:48:31;;;;;;;56.35;37.05;;;;;;;;;;4954811;28;20396;-85
2022/12/20 11:50:57;;;;;;;48.55;33.83;;;;;;;;;;5018097;28;20395;-85
2022/12/20 11:53:27;;;;;;;45.45;32.10;;;;;;;;;;5052312;28;20374;-84
2022/12/20 11:55:57;;;;;;;52.78;35.05;;;;;;;;;;5053454;28;20373;-84
2022/12/20 11:58:28;;;;;;;53.17;35.80;;;;;;;;;;5052105;28;20409;-84
2022/12/20 12:00:57;;;;;;;49.50;34.22;;;;;;;;;;5051638;28;20415;-84
2022/12/20 12:03:37;;;;;;;45.95;32.00;;;;;;;;;;5051363;28;20397;-85
2022/12/20 12:06:07;;;;;;;48.20;32.63;;;;;;;;;;5051900;28;20401;-85
2022/12/20 12:08:46;;;;;;;52.70;34.67;;;;;;;;;;5051876;28;20436;-85
2022/12/20 12:11:16;;;;;;;52.40;35.93;;;;;;;;;;5050418;28;20381;-85
2022/12/20 12:13:43;;;;;;;50.90;34.72;;;;;;;;;;5051780;28;20712;-85
2022/12/20 12:16:30;;;;;;;49.25;33.83;;;;;;;;;;5051667;28;20756;-84
2022/12/20 12:18:57;;;;;;;49.95;34.08;;;;;;;;;;5051121;28;20410;-84
2022/12/20 12:21:25;;;;;;;51.35;34.38;;;;;;;;;;5051671;28;20862;-84
2022/12/20 12:24:00;;;;;;;46.20;32.95;;;;;;;;;;5051222;28;20902;-84
2022/12/20 12:26:28;;;;;;;46.75;31.92;;;;;;;;;;5051688;28;20462;-85
2022/12/20 12:28:55;;;;;;;46.50;31.73;;;;;;;;;;5051379;28;20880;-84
2022/12/20 12:31:47;;;;;;;45.20;31.42;;;;;;;;;;5050425;28;20413;-85
2022/12/20 12:34:28;;;;;;;47.63;32.67;;;;;;;;;;5043578;28;21169;-85
2022/12/20 12:36:54;;;;;;;44.75;31.45;;;;;;;;;;5050257;28;20389;-85
2022/12/20 12:39:47;;;;;;;49.90;32.97;;;;;;;;;;5050733;28;20743;-85
2022/12/20 12:42:32;;;;;;;42.03;29.98;;;;;;;;;;5035144;28;20382;-85
2022/12/20 12:45:01;;;;;;;41.92;29.95;;;;;;;;;;5048069;28;20467;-85
2022/12/20 12:47:36;;;;;;;40.45;29.67;;;;;;;;;;5050442;28;20875;-84
2022/12/20 12:50:03;;;;;;;43.00;30.40;;;;;;;;;;5052068;28;20482;-84
2022/12/20 12:52:39;;;;;;;45.95;31.75;;;;;;;;;;5052072;28;20440;-85
2022/12/20 12:55:25;;;;;;;44.35;30.95;;;;;;;;;;5052058;28;20488;-85
2022/12/20 12:57:55;;;;;;;42.40;30.52;;;;;;;;;;5050938;28;20385;-85
2022/12/20 13:00:41;;;;;;;47.03;31.15;;;;;;;;;;5051733;28;20417;-85
2022/12/20 13:03:15;;;;;;;41.80;30.15;;;;;;;;;;5035225;28;20390;-85
2022/12/20 13:05:41;;;;;;;44.03;31.48;;;;;;;;;;5051184;28;25116;-85
2022/12/20 13:08:17;;;;;;;45.72;32.22;;;;;;;;;;5045935;28;20383;-86
2022/12/20 13:10:43;;;;;;;45.83;32.13;;;;;;;;;;5048111;28;25091;-86
2022/12/20 13:13:13;;;;;;;42.15;30.63;;;;;;;;;;5051744;28;20385;-85
2022/12/20 13:15:39;;;;;;;43.35;31.60;;;;;;;;;;5051274;28;20440;-85
2022/12/20 13:18:11;;;;;;;48.92;32.53;;;;;;;;;;5051718;28;20420;-85
2022/12/20 13:20:37;;;;;;;46.60;31.92;;;;;;;;;;5034023;28;20415;-86
2022/12/20 13:23:10;;;;;;;44.53;31.60;;;;;;;;;;5050789;28;20401;-85
2022/12/20 13:25:47;;;;;;;49.53;32.03;;;;;;;;;;5051666;28;20903;-84
2022/12/20 13:28:16;;;;;;;46.90;32.75;;;;;;;;;;5051566;28;20743;-86
2022/12/20 13:30:43;;;;;;;50.15;34.40;;;;;;;;;;5033472;28;20424;-86
2022/12/20 13:33:20;;;;;;;46.43;32.63;;;;;;;;;;5048704;28;20397;-87
2022/12/20 13:35:54;;;;;;;48.90;32.93;;;;;;;;;;5033618;28;20822;-86
2022/12/20 13:38:38;;;;;;;52.65;34.90;;;;;;;;;;5051301;28;25161;-86
2022/12/20 13:41:19;;;;;;;50.60;33.30;;;;;;;;;;5051389;28;20370;-86
2022/12/20 13:43:46;;;;;;;49.33;32.83;;;;;;;;;;5051319;28;20374;-87
2022/12/20 13:46:20;;;;;;;43.53;30.90;;;;;;;;;;5051441;28;20375;-85
2022/12/20 13:48:46;;;;;;;47.13;31.05;;;;;;;;;;5051262;28;20407;-86
2022/12/20 13:51:16;;;;;;;42.25;29.73;;;;;;;;;;5051366;28;20383;-86
2022/12/20 13:53:51;;;;;;;41.85;29.83;;;;;;;;;;5033685;28;20461;-87
2022/12/20 13:56:41;;;;;;;39.63;29.05;;;;;;;;;;5051197;28;25108;-86
2022/12/20 13:59:12;;;;;;;40.77;28.50;;;;;;;;;;5038495;28;20471;-85
2022/12/20 14:01:46;;;;;;;37.43;27.43;;;;;;;;;;5051301;28;20363;-87
2022/12/20 14:04:12;;;;;;;36.50;27.70;;;;;;;;;;5033382;28;25392;-88
2022/12/20 14:06:38;;;;;;;39.55;27.42;;;;;;;;;;5033938;28;20392;-85
2022/12/20 14:09:24;;;;;;;38.40;27.85;;;;;;;;;;5033072;28;20393;-85
2022/12/20 14:11:50;;;;;;;38.47;27.35;;;;;;;;;;5051083;28;20377;-86
2022/12/20 14:14:16;;;;;;;36.13;27.57;;;;;;;;;;5051021;28;20942;-84
2022/12/20 14:16:42;;;;;;;36.17;26.60;;;;;;;;;;5051117;28;20423;-85
2022/12/20 14:19:13;;;;;;;36.70;27.83;;;;;;;;;;5052818;28;20881;-85
2022/12/20 14:21:40;;;;;;;35.50;25.48;;;;;;;;;;5052411;28;20711;-85
2022/12/20 14:24:09;;;;;;;37.70;27.10;;;;;;;;;;5054973;28;20411;-85
2022/12/20 14:26:43;;;;;;;41.40;29.65;;;;;;;;;;5037163;28;20386;-85
2022/12/20 14:29:11;;;;;;;37.92;27.77;;;;;;;;;;5052391;28;25098;-85
2022/12/20 14:31:41;;;;;;;37.42;27.85;;;;;;;;;;5054311;28;20468;-85
2022/12/20 14:34:10;;;;;;;35.72;27.30;;;;;;;;;;5054627;28;20409;-85
2022/12/20 14:36:40;;;;;;;31.45;24.85;;;;;;;;;;5036799;28;20447;-85